sensor_id;sensor_type;location;lat;lon;timestamp;P1;durP1;ratioP1;P2;durP2;ratioP2
61739;SDS011;47645;45.288;12.038;2023-09-08T00:01:06;7.4;;;4.3;;
61739;SDS011;47645;45.288;12.038;2023-09-08T00:11:08;7.8;;;4.5;;
61739;SDS011;47645;45.288;12.038;2023-09-08T00:21:09;8.7;;;5.0;;
61739;SDS011;47645;45.288;12.038;2023-09-08T00:31:10;7.1;;;4.6;;
61739;SDS011;47645;45.288;12.038;2023-09-08T00:41:12;8.4;;;4.7;;
61739;SDS011;47645;45.288;12.038;2023-09-08T00:51:13;6.8;;;4.6;;
61739;SDS011;47645;45.288;12.038;2023-09-08T01:01:15;7.8;;;4.8;;
61739;SDS011;47645;45.288;12.038;2023-09-08T01:11:16;6.7;;;4.2;;
61739;SDS011;47645;45.288;12.038;2023-09-08T01:21:22;6.7;;;4.3;;
61739;SDS011;47645;45.288;12.038;2023-09-08T01:31:18;7.2;;;4.4;;
61739;SDS011;47645;45.288;12.038;2023-09-08T01:41:20;7.1;;;4.6;;
61739;SDS011;47645;45.288;12.038;2023-09-08T01:51:21;6.7;;;4.4;;
61739;SDS011;47645;45.288;12.038;2023-09-08T02:01:22;7.8;;;4.7;;
61739;SDS011;47645;45.288;12.038;2023-09-08T02:11:24;6.9;;;4.5;;
61739;SDS011;47645;45.288;12.038;2023-09-08T02:21:25;6.0;;;4.5;;
61739;SDS011;47645;45.288;12.038;2023-09-08T02:31:26;6.1;;;4.3;;
61739;SDS011;47645;45.288;12.038;2023-09-08T02:41:27;7.5;;;4.6;;
61739;SDS011;47645;45.288;12.038;2023-09-08T02:51:29;9.6;;;4.3;;
61739;SDS011;47645;45.288;12.038;2023-09-08T03:01:30;8.3;;;5.1;;
61739;SDS011;47645;45.288;12.038;2023-09-08T03:11:31;6.4;;;4.4;;
61739;SDS011;47645;45.288;12.038;2023-09-08T03:21:32;6.9;;;4.4;;
61739;SDS011;47645;45.288;12.038;2023-09-08T03:31:34;6.5;;;4.6;;
61739;SDS011;47645;45.288;12.038;2023-09-08T03:41:35;8.1;;;4.7;;
61739;SDS011;47645;45.288;12.038;2023-09-08T03:51:36;9.3;;;4.9;;
61739;SDS011;47645;45.288;12.038;2023-09-08T04:01:38;5.8;;;4.5;;
61739;SDS011;47645;45.288;12.038;2023-09-08T04:11:39;9.6;;;5.2;;
61739;SDS011;47645;45.288;12.038;2023-09-08T04:21:40;9.4;;;5.0;;
61739;SDS011;47645;45.288;12.038;2023-09-08T04:31:41;7.5;;;5.4;;
61739;SDS011;47645;45.288;12.038;2023-09-08T04:41:42;8.1;;;5.6;;
61739;SDS011;47645;45.288;12.038;2023-09-08T04:51:44;10.6;;;5.3;;
61739;SDS011;47645;45.288;12.038;2023-09-08T05:01:45;8.2;;;5.4;;
61739;SDS011;47645;45.288;12.038;2023-09-08T05:11:46;8.4;;;5.5;;
61739;SDS011;47645;45.288;12.038;2023-09-08T05:21:49;9.0;;;5.9;;
61739;SDS011;47645;45.288;12.038;2023-09-08T05:31:48;9.4;;;6.0;;
61739;SDS011;47645;45.288;12.038;2023-09-08T05:41:50;7.5;;;5.2;;
61739;SDS011;47645;45.288;12.038;2023-09-08T05:51:51;11.2;;;5.5;;
61739;SDS011;47645;45.288;12.038;2023-09-08T06:01:52;9.6;;;6.3;;
61739;SDS011;47645;45.288;12.038;2023-09-08T06:11:53;9.5;;;5.4;;
61739;SDS011;47645;45.288;12.038;2023-09-08T06:21:54;8.9;;;4.9;;
61739;SDS011;47645;45.288;12.038;2023-09-08T06:31:56;7.8;;;5.5;;
61739;SDS011;47645;45.288;12.038;2023-09-08T06:41:57;6.6;;;4.6;;
61739;SDS011;47645;45.288;12.038;2023-09-08T06:51:58;9.6;;;5.1;;
61739;SDS011;47645;45.288;12.038;2023-09-08T07:01:59;7.9;;;4.9;;
61739;SDS011;47645;45.288;12.038;2023-09-08T07:12:00;10.1;;;4.6;;
61739;SDS011;47645;45.288;12.038;2023-09-08T07:22:01;8.6;;;4.9;;
61739;SDS011;47645;45.288;12.038;2023-09-08T07:32:03;9.3;;;4.6;;
61739;SDS011;47645;45.288;12.038;2023-09-08T07:42:04;6.6;;;4.5;;
61739;SDS011;47645;45.288;12.038;2023-09-08T07:52:07;8.6;;;3.9;;
61739;SDS011;47645;45.288;12.038;2023-09-08T08:02:06;5.9;;;4.2;;
61739;SDS011;47645;45.288;12.038;2023-09-08T08:12:08;7.2;;;4.1;;
61739;SDS011;47645;45.288;12.038;2023-09-08T08:22:09;9.4;;;3.6;;
61739;SDS011;47645;45.288;12.038;2023-09-08T08:32:12;6.3;;;3.6;;
61739;SDS011;47645;45.288;12.038;2023-09-08T08:42:11;5.9;;;3.5;;
61739;SDS011;47645;45.288;12.038;2023-09-08T08:52:13;6.7;;;3.4;;
61739;SDS011;47645;45.288;12.038;2023-09-08T09:02:15;5.6;;;3.4;;
61739;SDS011;47645;45.288;12.038;2023-09-08T09:12:16;5.1;;;3.6;;
61739;SDS011;47645;45.288;12.038;2023-09-08T09:22:19;5.3;;;3.6;;
61739;SDS011;47645;45.288;12.038;2023-09-08T09:32:23;8.9;;;3.2;;
61739;SDS011;47645;45.288;12.038;2023-09-08T09:42:21;6.3;;;3.2;;
61739;SDS011;47645;45.288;12.038;2023-09-08T09:52:23;5.6;;;3.3;;
61739;SDS011;47645;45.288;12.038;2023-09-08T10:02:23;6.2;;;3.4;;
61739;SDS011;47645;45.288;12.038;2023-09-08T10:12:25;4.7;;;3.2;;
61739;SDS011;47645;45.288;12.038;2023-09-08T10:22:29;6.0;;;3.3;;
61739;SDS011;47645;45.288;12.038;2023-09-08T10:32:28;7.9;;;3.4;;
61739;SDS011;47645;45.288;12.038;2023-09-08T10:42:30;7.1;;;3.4;;
61739;SDS011;47645;45.288;12.038;2023-09-08T10:52:35;6.1;;;3.5;;
61739;SDS011;47645;45.288;12.038;2023-09-08T11:02:34;7.1;;;3.8;;
61739;SDS011;47645;45.288;12.038;2023-09-08T11:12:36;6.2;;;3.4;;
61739;SDS011;47645;45.288;12.038;2023-09-08T11:22:38;9.6;;;3.6;;
61739;SDS011;47645;45.288;12.038;2023-09-08T11:32:40;8.9;;;3.2;;
61739;SDS011;47645;45.288;12.038;2023-09-08T11:42:45;4.3;;;2.9;;
61739;SDS011;47645;45.288;12.038;2023-09-08T11:52:44;8.3;;;3.0;;
61739;SDS011;47645;45.288;12.038;2023-09-08T12:02:52;5.2;;;3.2;;
61739;SDS011;47645;45.288;12.038;2023-09-08T12:12:48;7.8;;;3.3;;
61739;SDS011;47645;45.288;12.038;2023-09-08T12:22:50;7.5;;;2.8;;
61739;SDS011;47645;45.288;12.038;2023-09-08T12:32:50;7.3;;;3.6;;
61739;SDS011;47645;45.288;12.038;2023-09-08T12:42:52;6.1;;;3.3;;
61739;SDS011;47645;45.288;12.038;2023-09-08T12:52:54;4.8;;;2.6;;
61739;SDS011;47645;45.288;12.038;2023-09-08T13:02:57;6.3;;;2.9;;
61739;SDS011;47645;45.288;12.038;2023-09-08T13:12:59;6.3;;;3.0;;
61739;SDS011;47645;45.288;12.038;2023-09-08T13:23:01;5.3;;;3.1;;
61739;SDS011;47645;45.288;12.038;2023-09-08T13:33:03;3.9;;;2.7;;
61739;SDS011;47645;45.288;12.038;2023-09-08T13:43:05;8.4;;;3.0;;
61739;SDS011;47645;45.288;12.038;2023-09-08T13:53:07;5.0;;;2.7;;
61739;SDS011;47645;45.288;12.038;2023-09-08T14:03:09;6.5;;;2.8;;
61739;SDS011;47645;45.288;12.038;2023-09-08T14:13:11;5.0;;;2.6;;
61739;SDS011;47645;45.288;12.038;2023-09-08T14:23:13;3.8;;;2.6;;
61739;SDS011;47645;45.288;12.038;2023-09-08T14:33:15;4.7;;;2.7;;
61739;SDS011;47645;45.288;12.038;2023-09-08T14:43:18;6.7;;;3.0;;
61739;SDS011;47645;45.288;12.038;2023-09-08T14:53:20;5.3;;;2.8;;
61739;SDS011;47645;45.288;12.038;2023-09-08T15:03:22;3.9;;;2.8;;
61739;SDS011;47645;45.288;12.038;2023-09-08T15:13:24;4.3;;;2.7;;
61739;SDS011;47645;45.288;12.038;2023-09-08T15:23:26;4.4;;;2.9;;
61739;SDS011;47645;45.288;12.038;2023-09-08T15:33:28;4.0;;;2.8;;
61739;SDS011;47645;45.288;12.038;2023-09-08T15:43:30;4.6;;;3.4;;
61739;SDS011;47645;45.288;12.038;2023-09-08T15:53:32;6.2;;;3.7;;
61739;SDS011;47645;45.288;12.038;2023-09-08T16:03:34;8.9;;;3.7;;
61739;SDS011;47645;45.288;12.038;2023-09-08T16:13:36;5.6;;;3.4;;
61739;SDS011;47645;45.288;12.038;2023-09-08T16:23:38;4.6;;;3.1;;
61739;SDS011;47645;45.288;12.038;2023-09-08T16:33:40;4.5;;;2.8;;
61739;SDS011;47645;45.288;12.038;2023-09-08T16:43:42;7.6;;;3.5;;
61739;SDS011;47645;45.288;12.038;2023-09-08T16:53:44;7.2;;;3.5;;
61739;SDS011;47645;45.288;12.038;2023-09-08T17:03:46;7.5;;;4.5;;
61739;SDS011;47645;45.288;12.038;2023-09-08T17:13:48;5.8;;;3.4;;
61739;SDS011;47645;45.288;12.038;2023-09-08T17:23:50;6.0;;;3.8;;
61739;SDS011;47645;45.288;12.038;2023-09-08T17:33:51;12.4;;;5.7;;
61739;SDS011;47645;45.288;12.038;2023-09-08T17:43:53;10.4;;;5.5;;
61739;SDS011;47645;45.288;12.038;2023-09-08T17:53:55;11.8;;;6.4;;
61739;SDS011;47645;45.288;12.038;2023-09-08T18:03:56;13.3;;;5.9;;
61739;SDS011;47645;45.288;12.038;2023-09-08T18:13:59;13.2;;;5.7;;
61739;SDS011;47645;45.288;12.038;2023-09-08T18:24:00;11.0;;;5.1;;
61739;SDS011;47645;45.288;12.038;2023-09-08T18:34:02;8.1;;;5.0;;
61739;SDS011;47645;45.288;12.038;2023-09-08T18:44:03;11.2;;;5.1;;
61739;SDS011;47645;45.288;12.038;2023-09-08T18:54:05;8.6;;;4.9;;
61739;SDS011;47645;45.288;12.038;2023-09-08T19:04:06;6.8;;;4.8;;
61739;SDS011;47645;45.288;12.038;2023-09-08T19:14:08;10.8;;;5.7;;
61739;SDS011;47645;45.288;12.038;2023-09-08T19:24:09;7.9;;;5.9;;
61739;SDS011;47645;45.288;12.038;2023-09-08T19:34:11;7.2;;;5.3;;
61739;SDS011;47645;45.288;12.038;2023-09-08T19:44:12;10.1;;;6.3;;
61739;SDS011;47645;45.288;12.038;2023-09-08T19:54:14;10.1;;;5.7;;
61739;SDS011;47645;45.288;12.038;2023-09-08T20:04:16;7.9;;;5.5;;
61739;SDS011;47645;45.288;12.038;2023-09-08T20:14:17;8.9;;;5.4;;
61739;SDS011;47645;45.288;12.038;2023-09-08T20:24:19;10.7;;;5.4;;
61739;SDS011;47645;45.288;12.038;2023-09-08T20:34:20;6.7;;;4.8;;
61739;SDS011;47645;45.288;12.038;2023-09-08T20:44:22;6.8;;;4.8;;
61739;SDS011;47645;45.288;12.038;2023-09-08T20:54:23;7.7;;;4.6;;
61739;SDS011;47645;45.288;12.038;2023-09-08T21:04:25;7.7;;;4.5;;
61739;SDS011;47645;45.288;12.038;2023-09-08T21:14:26;13.4;;;5.0;;
61739;SDS011;47645;45.288;12.038;2023-09-08T21:24:28;8.4;;;5.0;;
61739;SDS011;47645;45.288;12.038;2023-09-08T21:34:29;8.7;;;5.1;;
61739;SDS011;47645;45.288;12.038;2023-09-08T21:44:31;12.5;;;4.9;;
61739;SDS011;47645;45.288;12.038;2023-09-08T21:54:32;8.2;;;5.4;;
61739;SDS011;47645;45.288;12.038;2023-09-08T22:04:33;9.4;;;5.4;;
61739;SDS011;47645;45.288;12.038;2023-09-08T22:14:36;7.9;;;5.2;;
61739;SDS011;47645;45.288;12.038;2023-09-08T22:24:36;7.2;;;5.0;;
61739;SDS011;47645;45.288;12.038;2023-09-08T22:34:38;7.9;;;4.8;;
61739;SDS011;47645;45.288;12.038;2023-09-08T22:44:39;8.4;;;5.7;;
61739;SDS011;47645;45.288;12.038;2023-09-08T22:54:40;11.9;;;5.5;;
61739;SDS011;47645;45.288;12.038;2023-09-08T23:04:42;8.8;;;5.8;;
61739;SDS011;47645;45.288;12.038;2023-09-08T23:14:43;8.8;;;5.7;;
61739;SDS011;47645;45.288;12.038;2023-09-08T23:24:45;9.5;;;6.0;;
61739;SDS011;47645;45.288;12.038;2023-09-08T23:34:46;10.6;;;6.4;;
61739;SDS011;47645;45.288;12.038;2023-09-08T23:44:47;8.6;;;5.9;;
61739;SDS011;47645;45.288;12.038;2023-09-08T23:54:49;10.9;;;5.9;;
